Monday, January 22, 2018, 8:57 AM EST

KUNV, State College, University Park Airport

Location: State College, PA, United States Lat: 40.85
Local Time: 8:57 AM EST (13:57 GMT) Lon: -77.85
Time Zone: US/Eastern Elev: 1240 ft

Show me the last for .
Show Decoded

2018-01-22 08:25 METAR KUNV 221325Z 00000KT 1/2SM RA FG SCT019 OVC028 03/03 A3010 =
2018-01-22 07:53 METAR KUNV 221253Z 00000KT 1SM BR SCT004 OVC028 03/03 A3010 =
2018-01-22 06:53 METAR KUNV 221153Z 00000KT 1SM BR BKN002 BKN023 OVC031 03/03 A3008 =
2018-01-22 05:53 METAR KUNV 221053Z 00000KT 1/2SM FG OVC002 03/03 A3008 =
2018-01-22 05:35 METAR KUNV 221035Z AUTO 00000KT 1SM BR OVC002 03/03 A3008 RMK AO2 T00270027 =
2018-01-22 05:15 METAR KUNV 221015Z AUTO 00000KT 1/2SM FG OVC002 03/03 A3007 RMK AO2 T00260026 =
2018-01-22 04:55 METAR KUNV 220955Z AUTO 00000KT 3/4SM BR OVC002 03/03 A3007 RMK AO2 T00270027 =
2018-01-22 04:35 METAR KUNV 220935Z AUTO 00000KT 3/4SM BR SCT002 BKN025 OVC034 03/03 A3007 RMK
                 AO2 T00260026 =
2018-01-22 04:15 METAR KUNV 220915Z AUTO 00000KT 1 3/4SM BR SCT002 OVC025 03/03 A3007 RMK AO2
                 T00300030 =
2018-01-22 03:55 METAR KUNV 220855Z AUTO 00000KT 2SM BR BKN002 BKN021 OVC025 03/03 A3007 RMK AO2
                 T00300030 =
2018-01-22 03:35 METAR KUNV 220835Z AUTO 00000KT 2SM BR SCT002 OVC023 03/03 A3008 RMK AO2
                 T00300030 =
2018-01-22 03:15 METAR KUNV 220815Z AUTO 00000KT 1SM BR BKN002 OVC021 03/03 A3009 RMK AO2
                 T00300030 =
2018-01-22 02:55 METAR KUNV 220755Z AUTO 00000KT 3/4SM -RA BKN002 OVC021 03/03 A3009 RMK AO2
                 T00300030 =
2018-01-22 02:35 METAR KUNV 220735Z AUTO 00000KT 3/4SM -DZ OVC021 03/03 A3009 RMK AO2 P0001
                 T00300030 =
2018-01-22 02:15 METAR KUNV 220715Z AUTO 00000KT 1SM DZ OVC021 03/03 A3009 RMK AO2 T00310031 =
2018-01-22 01:55 METAR KUNV 220655Z AUTO 00000KT 3/4SM BR OVC021 03/03 A3009 RMK AO2 T00310031 =
2018-01-22 01:35 METAR KUNV 220635Z AUTO 00000KT 1/2SM FG OVC019 03/03 A3009 RMK AO2 T00300030 =
2018-01-22 01:15 METAR KUNV 220615Z AUTO 00000KT 3/4SM BR OVC019 03/03 A3009 RMK AO2 T00310031 =
2018-01-22 00:55 METAR KUNV 220555Z AUTO 00000KT 1/2SM FG BKN003 OVC019 03/03 A3009 RMK AO2
                 T00300030 10043 20030 =
2018-01-22 00:35 METAR KUNV 220535Z AUTO 00000KT 1/2SM FG OVC003 03/03 A3009 RMK AO2 T00300030 =
2018-01-22 00:15 METAR KUNV 220515Z AUTO 00000KT 3/4SM BR OVC003 03/03 A3009 RMK AO2 T00310031 =
2018-01-21 23:55 METAR KUNV 220455Z AUTO 00000KT 3/4SM BR BKN003 OVC022 03/03 A3010 RMK AO2
                 T00310031 =
2018-01-21 23:35 METAR KUNV 220435Z AUTO 00000KT 1/2SM FG BKN003 OVC022 03/03 A3010 RMK AO2 P0001
                 T00320032 =
2018-01-21 23:15 METAR KUNV 220415Z AUTO 00000KT 1 1/4SM BR OVC003 03/03 A3010 RMK AO2 P0001
                 T00330033 =
2018-01-21 22:55 METAR KUNV 220355Z AUTO 00000KT 1 1/4SM -DZ OVC003 03/03 A3011 RMK AO2 T00310031
                 400550030 =
2018-01-21 22:35 METAR KUNV 220335Z AUTO 00000KT 3/4SM DZ OVC003 03/03 A3010 RMK AO2 P0001
                 T00320032 =
2018-01-21 22:15 METAR KUNV 220315Z AUTO 00000KT 1 1/4SM BR OVC001 03/03 A3011 RMK AO2 P0001
                 T00320032 =
2018-01-21 21:53 METAR KUNV 220253Z 00000KT 1/2SM -DZ FG OVC001 03/03 A3011 =
2018-01-21 21:09 METAR KUNV 220209Z 00000KT 1/4SM RA FG OVC001 04/04 A3010 =
2018-01-21 20:53 METAR KUNV 220153Z 00000KT 1/2SM -RA FG BKN001 BKN008 OVC020 04/04 A3010 =
2018-01-21 20:41 METAR KUNV 220141Z 00000KT 1/4SM -RA FG OVC001 04/04 A3010 =
2018-01-21 19:53 METAR KUNV 220053Z 00000KT 1/8SM FG OVC001 04/04 A3010 =
2018-01-21 19:43 METAR KUNV 220043Z 00000KT 1/8SM FG OVC001 04/04 A3010 =
2018-01-21 19:26 METAR KUNV 220026Z 00000KT 1/4SM FG OVC001 04/04 A3010 =
2018-01-21 18:53 METAR KUNV 212353Z COR 00000KT 1/2SM FG OVC002 04/04 A3010 =
2018-01-21 18:11 METAR KUNV 212311Z 00000KT 3/4SM BR SCT002 OVC023 04/04 A3009 =
2018-01-21 17:53 METAR KUNV 212253Z 00000KT 1/2SM FG SCT002 OVC023 04/04 A3009 =
2018-01-21 17:43 METAR KUNV 212243Z 00000KT 1 1/2SM BR SCT002 OVC023 04/04 A3009 =
2018-01-21 16:53 METAR KUNV 212153Z 00000KT 2 3/4SM BR SCT003 BKN020 OVC028 05/05 A3009 =
2018-01-21 16:18 METAR KUNV 212118Z 00000KT 2SM BR SCT003 BKN012 OVC027 05/05 A3008 =
2018-01-21 16:04 METAR KUNV 212104Z 00000KT 1 1/4SM BR BKN003 BKN014 OVC021 05/05 A3008 =
2018-01-21 15:53 METAR KUNV 212053Z 00000KT 3/4SM BR OVC003 05/05 A3008 =
2018-01-21 14:53 METAR KUNV 211953Z 00000KT 3/4SM BR OVC004 05/05 A3008 =
2018-01-21 14:10 METAR KUNV 211910Z 00000KT 3/4SM BR OVC003 05/05 A3010 =
2018-01-21 13:53 METAR KUNV 211853Z 00000KT 1/8SM BR OVC003 05/05 A3010 =
2018-01-21 13:30 METAR KUNV 211830Z 00000KT 1/2SM BR OVC003 05/04 A3010 =
2018-01-21 12:53 METAR KUNV 211753Z 00000KT 1SM BR OVC003 05/04 A3012 =
2018-01-21 11:53 METAR KUNV 211653Z 00000KT 2SM BR OVC003 05/04 A3014 =
2018-01-21 11:15 METAR KUNV 211615Z 00000KT 4SM BR OVC009 05/03 A3016 =
2018-01-21 10:53 METAR KUNV 211553Z 00000KT 7SM OVC011 05/03 A3016 =
2018-01-21 09:53 METAR KUNV 211453Z 00000KT 7SM BKN015 OVC025 05/03 A3017 =

Support USWX by starting your Amazon purchase here.